sensor_id;sensor_type;location;lat;lon;timestamp;temperature;humidity
21895;DHT22;11112;51.270;7.224;2023-06-10T00:00:10;22.30;83.00
21895;DHT22;11112;51.270;7.224;2023-06-10T00:02:40;22.30;83.30
21895;DHT22;11112;51.270;7.224;2023-06-10T00:05:09;22.20;83.40
21895;DHT22;11112;51.270;7.224;2023-06-10T00:07:42;22.20;83.30
21895;DHT22;11112;51.270;7.224;2023-06-10T00:10:11;22.20;83.30
21895;DHT22;11112;51.270;7.224;2023-06-10T00:12:39;22.20;83.10
21895;DHT22;11112;51.270;7.224;2023-06-10T00:15:11;22.20;83.00
21895;DHT22;11112;51.270;7.224;2023-06-10T00:17:38;22.10;83.00
21895;DHT22;11112;51.270;7.224;2023-06-10T00:20:08;22.10;83.30
21895;DHT22;11112;51.270;7.224;2023-06-10T00:22:37;22.10;83.50
21895;DHT22;11112;51.270;7.224;2023-06-10T00:25:11;22.00;83.70
21895;DHT22;11112;51.270;7.224;2023-06-10T00:27:39;22.00;83.80
21895;DHT22;11112;51.270;7.224;2023-06-10T00:30:11;22.00;84.70
21895;DHT22;11112;51.270;7.224;2023-06-10T00:32:39;22.00;83.80
21895;DHT22;11112;51.270;7.224;2023-06-10T00:35:07;22.00;83.70
21895;DHT22;11112;51.270;7.224;2023-06-10T00:37:34;22.00;83.60
21895;DHT22;11112;51.270;7.224;2023-06-10T00:40:12;22.00;83.70
21895;DHT22;11112;51.270;7.224;2023-06-10T00:42:41;22.00;83.80
21895;DHT22;11112;51.270;7.224;2023-06-10T00:45:13;22.00;83.90
21895;DHT22;11112;51.270;7.224;2023-06-10T00:47:40;21.90;83.70
21895;DHT22;11112;51.270;7.224;2023-06-10T00:50:11;21.90;83.90
21895;DHT22;11112;51.270;7.224;2023-06-10T00:52:41;21.80;84.10
21895;DHT22;11112;51.270;7.224;2023-06-10T00:55:12;21.80;84.30
21895;DHT22;11112;51.270;7.224;2023-06-10T00:57:39;21.80;84.40
21895;DHT22;11112;51.270;7.224;2023-06-10T01:00:13;21.80;84.50
21895;DHT22;11112;51.270;7.224;2023-06-10T01:02:41;21.80;84.60
21895;DHT22;11112;51.270;7.224;2023-06-10T01:05:09;21.80;84.60
21895;DHT22;11112;51.270;7.224;2023-06-10T01:07:43;21.80;84.40
21895;DHT22;11112;51.270;7.224;2023-06-10T01:10:19;21.80;84.30
21895;DHT22;11112;51.270;7.224;2023-06-10T01:12:55;21.70;84.40
21895;DHT22;11112;51.270;7.224;2023-06-10T01:15:30;21.70;84.60
21895;DHT22;11112;51.270;7.224;2023-06-10T01:17:59;21.60;84.90
21895;DHT22;11112;51.270;7.224;2023-06-10T01:20:27;21.60;85.10
21895;DHT22;11112;51.270;7.224;2023-06-10T01:22:59;21.60;85.00
21895;DHT22;11112;51.270;7.224;2023-06-10T01:25:29;21.60;85.00
21895;DHT22;11112;51.270;7.224;2023-06-10T01:28:04;21.60;85.00
21895;DHT22;11112;51.270;7.224;2023-06-10T01:30:39;21.60;85.00
21895;DHT22;11112;51.270;7.224;2023-06-10T01:33:16;21.60;85.10
21895;DHT22;11112;51.270;7.224;2023-06-10T01:35:47;21.60;85.10
21895;DHT22;11112;51.270;7.224;2023-06-10T01:38:19;21.50;85.10
21895;DHT22;11112;51.270;7.224;2023-06-10T01:40:49;21.50;85.10
21895;DHT22;11112;51.270;7.224;2023-06-10T01:43:22;21.50;85.20
21895;DHT22;11112;51.270;7.224;2023-06-10T01:45:50;21.50;85.20
21895;DHT22;11112;51.270;7.224;2023-06-10T01:48:19;21.50;85.20
21895;DHT22;11112;51.270;7.224;2023-06-10T01:50:46;21.50;85.20
21895;DHT22;11112;51.270;7.224;2023-06-10T01:53:14;21.50;85.20
21895;DHT22;11112;51.270;7.224;2023-06-10T01:55:42;21.50;85.40
21895;DHT22;11112;51.270;7.224;2023-06-10T01:58:09;21.50;85.30
21895;DHT22;11112;51.270;7.224;2023-06-10T02:00:38;21.50;85.30
21895;DHT22;11112;51.270;7.224;2023-06-10T02:03:06;21.50;85.40
21895;DHT22;11112;51.270;7.224;2023-06-10T02:05:34;21.50;85.40
21895;DHT22;11112;51.270;7.224;2023-06-10T02:08:03;21.40;85.50
21895;DHT22;11112;51.270;7.224;2023-06-10T02:10:33;21.40;85.60
21895;DHT22;11112;51.270;7.224;2023-06-10T02:13:02;21.40;85.70
21895;DHT22;11112;51.270;7.224;2023-06-10T02:15:30;21.40;85.90
21895;DHT22;11112;51.270;7.224;2023-06-10T02:17:57;21.40;85.80
21895;DHT22;11112;51.270;7.224;2023-06-10T02:20:26;21.30;85.80
21895;DHT22;11112;51.270;7.224;2023-06-10T02:22:54;21.30;85.80
21895;DHT22;11112;51.270;7.224;2023-06-10T02:25:22;21.30;85.90
21895;DHT22;11112;51.270;7.224;2023-06-10T02:27:49;21.30;85.90
21895;DHT22;11112;51.270;7.224;2023-06-10T02:30:19;21.30;86.00
21895;DHT22;11112;51.270;7.224;2023-06-10T02:32:48;21.30;86.00
21895;DHT22;11112;51.270;7.224;2023-06-10T02:35:17;21.20;85.80
21895;DHT22;11112;51.270;7.224;2023-06-10T02:37:45;21.20;85.90
21895;DHT22;11112;51.270;7.224;2023-06-10T02:40:12;21.20;85.90
21895;DHT22;11112;51.270;7.224;2023-06-10T02:42:40;21.20;86.10
21895;DHT22;11112;51.270;7.224;2023-06-10T02:45:08;21.20;86.10
21895;DHT22;11112;51.270;7.224;2023-06-10T02:47:38;21.20;86.10
21895;DHT22;11112;51.270;7.224;2023-06-10T02:50:06;21.10;86.20
21895;DHT22;11112;51.270;7.224;2023-06-10T02:52:35;21.10;86.40
21895;DHT22;11112;51.270;7.224;2023-06-10T02:55:05;21.10;86.40
21895;DHT22;11112;51.270;7.224;2023-06-10T02:57:34;21.10;86.30
21895;DHT22;11112;51.270;7.224;2023-06-10T03:00:05;21.10;86.20
21895;DHT22;11112;51.270;7.224;2023-06-10T03:02:39;21.10;86.20
21895;DHT22;11112;51.270;7.224;2023-06-10T03:05:08;21.00;86.20
21895;DHT22;11112;51.270;7.224;2023-06-10T03:07:37;21.00;86.30
21895;DHT22;11112;51.270;7.224;2023-06-10T03:10:05;21.00;86.30
21895;DHT22;11112;51.270;7.224;2023-06-10T03:12:35;21.00;86.50
21895;DHT22;11112;51.270;7.224;2023-06-10T03:15:03;20.90;86.70
21895;DHT22;11112;51.270;7.224;2023-06-10T03:17:32;20.90;86.90
21895;DHT22;11112;51.270;7.224;2023-06-10T03:20:02;20.90;87.00
21895;DHT22;11112;51.270;7.224;2023-06-10T03:22:31;20.90;86.90
21895;DHT22;11112;51.270;7.224;2023-06-10T03:24:58;20.90;87.60
21895;DHT22;11112;51.270;7.224;2023-06-10T03:27:27;20.80;86.80
21895;DHT22;11112;51.270;7.224;2023-06-10T03:29:56;20.90;86.80
21895;DHT22;11112;51.270;7.224;2023-06-10T03:32:23;20.80;86.90
21895;DHT22;11112;51.270;7.224;2023-06-10T03:34:52;20.80;86.80
21895;DHT22;11112;51.270;7.224;2023-06-10T03:37:23;20.80;86.80
21895;DHT22;11112;51.270;7.224;2023-06-10T03:39:51;20.80;86.80
21895;DHT22;11112;51.270;7.224;2023-06-10T03:42:18;20.80;86.90
21895;DHT22;11112;51.270;7.224;2023-06-10T03:44:46;20.80;86.80
21895;DHT22;11112;51.270;7.224;2023-06-10T03:47:13;20.80;86.80
21895;DHT22;11112;51.270;7.224;2023-06-10T03:49:41;20.70;86.80
21895;DHT22;11112;51.270;7.224;2023-06-10T03:52:09;20.80;86.90
21895;DHT22;11112;51.270;7.224;2023-06-10T03:54:38;20.70;86.90
21895;DHT22;11112;51.270;7.224;2023-06-10T03:57:06;20.80;87.20
21895;DHT22;11112;51.270;7.224;2023-06-10T03:59:38;20.70;87.10
21895;DHT22;11112;51.270;7.224;2023-06-10T04:02:06;20.70;87.10
21895;DHT22;11112;51.270;7.224;2023-06-10T04:04:34;20.70;88.10
21895;DHT22;11112;51.270;7.224;2023-06-10T04:07:04;20.70;87.20
21895;DHT22;11112;51.270;7.224;2023-06-10T04:09:32;20.70;87.40
21895;DHT22;11112;51.270;7.224;2023-06-10T04:12:01;20.70;87.30
21895;DHT22;11112;51.270;7.224;2023-06-10T04:14:31;20.70;87.30
21895;DHT22;11112;51.270;7.224;2023-06-10T04:17:00;20.70;87.60
21895;DHT22;11112;51.270;7.224;2023-06-10T04:19:27;20.70;87.60
21895;DHT22;11112;51.270;7.224;2023-06-10T04:21:56;20.70;87.70
21895;DHT22;11112;51.270;7.224;2023-06-10T04:24:23;20.70;87.60
21895;DHT22;11112;51.270;7.224;2023-06-10T04:26:51;20.70;87.70
21895;DHT22;11112;51.270;7.224;2023-06-10T04:29:20;20.70;87.60
21895;DHT22;11112;51.270;7.224;2023-06-10T04:31:48;20.80;87.80
21895;DHT22;11112;51.270;7.224;2023-06-10T04:34:16;20.80;88.70
21895;DHT22;11112;51.270;7.224;2023-06-10T04:36:44;20.80;87.90
21895;DHT22;11112;51.270;7.224;2023-06-10T04:39:12;20.90;87.80
21895;DHT22;11112;51.270;7.224;2023-06-10T04:41:43;20.90;87.60
21895;DHT22;11112;51.270;7.224;2023-06-10T04:44:13;21.00;87.80
21895;DHT22;11112;51.270;7.224;2023-06-10T04:46:42;21.10;87.60
21895;DHT22;11112;51.270;7.224;2023-06-10T04:49:09;21.10;87.30
21895;DHT22;11112;51.270;7.224;2023-06-10T04:51:40;21.20;87.30
21895;DHT22;11112;51.270;7.224;2023-06-10T04:54:07;21.20;87.10
21895;DHT22;11112;51.270;7.224;2023-06-10T04:56:35;21.30;87.00
21895;DHT22;11112;51.270;7.224;2023-06-10T04:59:02;21.40;87.10
21895;DHT22;11112;51.270;7.224;2023-06-10T05:01:30;21.40;86.90
21895;DHT22;11112;51.270;7.224;2023-06-10T05:03:59;21.50;86.60
21895;DHT22;11112;51.270;7.224;2023-06-10T05:06:26;21.50;86.20
21895;DHT22;11112;51.270;7.224;2023-06-10T05:08:54;21.50;86.00
21895;DHT22;11112;51.270;7.224;2023-06-10T05:11:24;21.60;86.20
21895;DHT22;11112;51.270;7.224;2023-06-10T05:13:51;21.70;86.60
21895;DHT22;11112;51.270;7.224;2023-06-10T05:16:19;21.70;85.90
21895;DHT22;11112;51.270;7.224;2023-06-10T05:18:48;21.80;85.90
21895;DHT22;11112;51.270;7.224;2023-06-10T05:21:20;21.90;85.90
21895;DHT22;11112;51.270;7.224;2023-06-10T05:23:47;21.90;85.70
21895;DHT22;11112;51.270;7.224;2023-06-10T05:26:16;21.90;85.20
21895;DHT22;11112;51.270;7.224;2023-06-10T05:28:45;21.90;85.50
21895;DHT22;11112;51.270;7.224;2023-06-10T05:31:12;21.90;85.50
21895;DHT22;11112;51.270;7.224;2023-06-10T05:33:41;22.00;85.80
21895;DHT22;11112;51.270;7.224;2023-06-10T05:36:09;22.00;85.00
21895;DHT22;11112;51.270;7.224;2023-06-10T05:38:38;22.00;85.30
21895;DHT22;11112;51.270;7.224;2023-06-10T05:41:06;21.90;85.30
21895;DHT22;11112;51.270;7.224;2023-06-10T05:43:34;22.00;85.80
21895;DHT22;11112;51.270;7.224;2023-06-10T05:46:03;21.90;86.30
21895;DHT22;11112;51.270;7.224;2023-06-10T05:48:33;21.90;85.40
21895;DHT22;11112;51.270;7.224;2023-06-10T05:51:01;21.90;85.30
21895;DHT22;11112;51.270;7.224;2023-06-10T05:53:29;21.90;85.50
21895;DHT22;11112;51.270;7.224;2023-06-10T05:55:58;22.00;86.10
21895;DHT22;11112;51.270;7.224;2023-06-10T05:58:25;22.00;85.80
21895;DHT22;11112;51.270;7.224;2023-06-10T06:00:53;22.00;85.60
21895;DHT22;11112;51.270;7.224;2023-06-10T06:03:21;22.10;85.40
21895;DHT22;11112;51.270;7.224;2023-06-10T06:05:49;22.20;85.70
21895;DHT22;11112;51.270;7.224;2023-06-10T06:08:17;22.20;85.70
21895;DHT22;11112;51.270;7.224;2023-06-10T06:10:44;22.30;85.30
21895;DHT22;11112;51.270;7.224;2023-06-10T06:13:14;22.40;84.70
21895;DHT22;11112;51.270;7.224;2023-06-10T06:15:44;22.40;85.10
21895;DHT22;11112;51.270;7.224;2023-06-10T06:18:13;22.40;84.10
21895;DHT22;11112;51.270;7.224;2023-06-10T06:20:44;22.40;84.00
21895;DHT22;11112;51.270;7.224;2023-06-10T06:23:11;22.40;83.00
21895;DHT22;11112;51.270;7.224;2023-06-10T06:25:39;22.40;82.70
21895;DHT22;11112;51.270;7.224;2023-06-10T06:28:06;22.40;83.30
21895;DHT22;11112;51.270;7.224;2023-06-10T06:30:36;22.50;83.50
21895;DHT22;11112;51.270;7.224;2023-06-10T06:33:04;22.50;83.00
21895;DHT22;11112;51.270;7.224;2023-06-10T06:35:32;22.60;82.60
21895;DHT22;11112;51.270;7.224;2023-06-10T06:38:01;22.70;82.10
21895;DHT22;11112;51.270;7.224;2023-06-10T06:40:30;22.70;81.70
21895;DHT22;11112;51.270;7.224;2023-06-10T06:42:59;22.80;82.30
21895;DHT22;11112;51.270;7.224;2023-06-10T06:45:26;22.90;81.80
21895;DHT22;11112;51.270;7.224;2023-06-10T06:47:56;22.90;81.60
21895;DHT22;11112;51.270;7.224;2023-06-10T06:50:26;23.00;81.60
21895;DHT22;11112;51.270;7.224;2023-06-10T06:52:54;23.10;80.80
21895;DHT22;11112;51.270;7.224;2023-06-10T06:55:22;23.10;80.60
21895;DHT22;11112;51.270;7.224;2023-06-10T06:57:49;23.20;80.40
21895;DHT22;11112;51.270;7.224;2023-06-10T07:00:19;23.30;80.50
21895;DHT22;11112;51.270;7.224;2023-06-10T07:02:48;23.40;80.90
21895;DHT22;11112;51.270;7.224;2023-06-10T07:05:18;23.50;80.70
21895;DHT22;11112;51.270;7.224;2023-06-10T07:07:45;23.60;81.30
21895;DHT22;11112;51.270;7.224;2023-06-10T07:10:21;23.70;80.90
21895;DHT22;11112;51.270;7.224;2023-06-10T07:12:51;23.80;80.30
21895;DHT22;11112;51.270;7.224;2023-06-10T07:15:18;23.90;80.80
21895;DHT22;11112;51.270;7.224;2023-06-10T07:17:46;23.90;78.50
21895;DHT22;11112;51.270;7.224;2023-06-10T07:20:16;23.90;78.80
21895;DHT22;11112;51.270;7.224;2023-06-10T07:22:44;23.90;79.30
21895;DHT22;11112;51.270;7.224;2023-06-10T07:25:12;24.00;78.90
21895;DHT22;11112;51.270;7.224;2023-06-10T07:27:41;24.70;77.30
21895;DHT22;11112;51.270;7.224;2023-06-10T07:30:10;26.60;74.20
21895;DHT22;11112;51.270;7.224;2023-06-10T07:32:38;27.40;70.20
21895;DHT22;11112;51.270;7.224;2023-06-10T07:35:10;26.90;71.10
21895;DHT22;11112;51.270;7.224;2023-06-10T07:37:40;26.40;72.40
21895;DHT22;11112;51.270;7.224;2023-06-10T07:40:08;26.10;73.10
21895;DHT22;11112;51.270;7.224;2023-06-10T07:42:36;25.70;74.10
21895;DHT22;11112;51.270;7.224;2023-06-10T07:45:04;25.60;74.60
21895;DHT22;11112;51.270;7.224;2023-06-10T07:47:34;25.30;73.90
21895;DHT22;11112;51.270;7.224;2023-06-10T07:50:02;25.20;75.20
21895;DHT22;11112;51.270;7.224;2023-06-10T07:52:32;25.10;75.40
21895;DHT22;11112;51.270;7.224;2023-06-10T07:55:03;25.10;75.40
21895;DHT22;11112;51.270;7.224;2023-06-10T07:57:32;25.00;74.90
21895;DHT22;11112;51.270;7.224;2023-06-10T08:00:02;25.00;75.30
21895;DHT22;11112;51.270;7.224;2023-06-10T08:02:33;24.90;76.10
21895;DHT22;11112;51.270;7.224;2023-06-10T08:05:01;25.00;76.60
21895;DHT22;11112;51.270;7.224;2023-06-10T08:07:28;25.00;76.40
21895;DHT22;11112;51.270;7.224;2023-06-10T08:09:56;24.90;76.20
21895;DHT22;11112;51.270;7.224;2023-06-10T08:12:25;24.90;76.40
21895;DHT22;11112;51.270;7.224;2023-06-10T08:14:53;24.90;77.50
21895;DHT22;11112;51.270;7.224;2023-06-10T08:17:22;25.00;77.20
21895;DHT22;11112;51.270;7.224;2023-06-10T08:19:50;24.90;77.30
21895;DHT22;11112;51.270;7.224;2023-06-10T08:22:17;25.00;77.90
21895;DHT22;11112;51.270;7.224;2023-06-10T08:24:44;25.00;77.50
21895;DHT22;11112;51.270;7.224;2023-06-10T08:27:12;25.10;78.70
21895;DHT22;11112;51.270;7.224;2023-06-10T08:29:42;25.00;78.10
21895;DHT22;11112;51.270;7.224;2023-06-10T08:32:09;25.00;78.10
21895;DHT22;11112;51.270;7.224;2023-06-10T08:34:37;25.00;77.50
21895;DHT22;11112;51.270;7.224;2023-06-10T08:37:07;25.00;77.50
21895;DHT22;11112;51.270;7.224;2023-06-10T08:39:35;25.00;78.00
21895;DHT22;11112;51.270;7.224;2023-06-10T08:42:11;25.00;78.50
21895;DHT22;11112;51.270;7.224;2023-06-10T08:44:43;25.00;78.20
21895;DHT22;11112;51.270;7.224;2023-06-10T08:47:16;25.00;77.30
21895;DHT22;11112;51.270;7.224;2023-06-10T08:49:45;25.00;78.50
21895;DHT22;11112;51.270;7.224;2023-06-10T08:52:20;25.00;77.30
21895;DHT22;11112;51.270;7.224;2023-06-10T08:54:53;25.00;77.10
21895;DHT22;11112;51.270;7.224;2023-06-10T08:57:23;25.00;76.10
21895;DHT22;11112;51.270;7.224;2023-06-10T08:59:55;25.00;76.20
21895;DHT22;11112;51.270;7.224;2023-06-10T09:02:25;25.00;76.70
21895;DHT22;11112;51.270;7.224;2023-06-10T09:04:53;25.00;76.20
21895;DHT22;11112;51.270;7.224;2023-06-10T09:07:25;25.00;77.20
21895;DHT22;11112;51.270;7.224;2023-06-10T09:09:55;25.10;76.60
21895;DHT22;11112;51.270;7.224;2023-06-10T09:12:23;25.10;76.40
21895;DHT22;11112;51.270;7.224;2023-06-10T09:14:53;25.10;76.50
21895;DHT22;11112;51.270;7.224;2023-06-10T09:17:24;25.20;76.50
21895;DHT22;11112;51.270;7.224;2023-06-10T09:19:54;25.20;77.50
21895;DHT22;11112;51.270;7.224;2023-06-10T09:22:23;25.20;75.50
21895;DHT22;11112;51.270;7.224;2023-06-10T09:24:52;25.20;75.50
21895;DHT22;11112;51.270;7.224;2023-06-10T09:27:19;25.20;76.00
21895;DHT22;11112;51.270;7.224;2023-06-10T09:29:48;25.20;74.80
21895;DHT22;11112;51.270;7.224;2023-06-10T09:32:20;25.20;75.20
21895;DHT22;11112;51.270;7.224;2023-06-10T09:34:48;25.20;74.60
21895;DHT22;11112;51.270;7.224;2023-06-10T09:37:20;25.20;75.60
21895;DHT22;11112;51.270;7.224;2023-06-10T09:40:02;25.20;74.70
21895;DHT22;11112;51.270;7.224;2023-06-10T09:42:33;25.20;75.00
21895;DHT22;11112;51.270;7.224;2023-06-10T09:45:01;25.30;73.20
21895;DHT22;11112;51.270;7.224;2023-06-10T09:47:31;25.30;73.00
21895;DHT22;11112;51.270;7.224;2023-06-10T09:49:59;25.30;73.30
21895;DHT22;11112;51.270;7.224;2023-06-10T09:52:28;25.30;74.40
21895;DHT22;11112;51.270;7.224;2023-06-10T09:55:00;25.30;74.40
21895;DHT22;11112;51.270;7.224;2023-06-10T09:57:31;25.30;72.40
21895;DHT22;11112;51.270;7.224;2023-06-10T09:59:59;25.30;72.10
21895;DHT22;11112;51.270;7.224;2023-06-10T10:02:33;25.40;72.40
21895;DHT22;11112;51.270;7.224;2023-06-10T10:05:13;25.40;72.30
21895;DHT22;11112;51.270;7.224;2023-06-10T10:07:41;25.40;73.10
21895;DHT22;11112;51.270;7.224;2023-06-10T10:10:11;25.40;73.70
21895;DHT22;11112;51.270;7.224;2023-06-10T10:12:40;25.50;73.50
21895;DHT22;11112;51.270;7.224;2023-06-10T10:15:09;25.40;73.60
21895;DHT22;11112;51.270;7.224;2023-06-10T10:17:46;25.50;72.90
21895;DHT22;11112;51.270;7.224;2023-06-10T10:20:19;25.50;73.10
21895;DHT22;11112;51.270;7.224;2023-06-10T10:22:49;25.50;73.80
21895;DHT22;11112;51.270;7.224;2023-06-10T10:25:23;25.50;72.30
21895;DHT22;11112;51.270;7.224;2023-06-10T10:27:56;25.60;72.40
21895;DHT22;11112;51.270;7.224;2023-06-10T10:30:24;25.60;71.60
21895;DHT22;11112;51.270;7.224;2023-06-10T10:32:57;25.60;71.40
21895;DHT22;11112;51.270;7.224;2023-06-10T10:35:33;25.60;72.40
21895;DHT22;11112;51.270;7.224;2023-06-10T10:38:02;25.60;72.00
21895;DHT22;11112;51.270;7.224;2023-06-10T10:40:30;25.60;70.90
21895;DHT22;11112;51.270;7.224;2023-06-10T10:42:58;25.60;69.50
21895;DHT22;11112;51.270;7.224;2023-06-10T10:45:27;25.60;70.60
21895;DHT22;11112;51.270;7.224;2023-06-10T10:47:58;25.60;70.40
21895;DHT22;11112;51.270;7.224;2023-06-10T10:50:31;25.60;69.30
21895;DHT22;11112;51.270;7.224;2023-06-10T10:53:01;25.70;70.80
21895;DHT22;11112;51.270;7.224;2023-06-10T10:55:30;25.70;71.00
21895;DHT22;11112;51.270;7.224;2023-06-10T10:57:58;25.70;71.00
21895;DHT22;11112;51.270;7.224;2023-06-10T11:00:31;25.70;72.20
21895;DHT22;11112;51.270;7.224;2023-06-10T11:03:05;25.80;70.10
21895;DHT22;11112;51.270;7.224;2023-06-10T11:05:38;25.80;69.30
21895;DHT22;11112;51.270;7.224;2023-06-10T11:08:09;25.90;70.00
21895;DHT22;11112;51.270;7.224;2023-06-10T11:10:37;25.90;70.30
21895;DHT22;11112;51.270;7.224;2023-06-10T11:13:07;25.90;71.00
21895;DHT22;11112;51.270;7.224;2023-06-10T11:15:39;25.90;71.00
21895;DHT22;11112;51.270;7.224;2023-06-10T11:18:15;25.90;70.20
21895;DHT22;11112;51.270;7.224;2023-06-10T11:20:58;25.90;70.00
21895;DHT22;11112;51.270;7.224;2023-06-10T11:23:40;25.90;69.90
21895;DHT22;11112;51.270;7.224;2023-06-10T11:26:10;25.90;70.40
21895;DHT22;11112;51.270;7.224;2023-06-10T11:29:09;25.90;70.10
21895;DHT22;11112;51.270;7.224;2023-06-10T11:31:49;25.90;71.80
21895;DHT22;11112;51.270;7.224;2023-06-10T11:34:24;25.80;72.40
21895;DHT22;11112;51.270;7.224;2023-06-10T11:36:52;25.80;72.60
21895;DHT22;11112;51.270;7.224;2023-06-10T11:39:21;25.70;73.20
21895;DHT22;11112;51.270;7.224;2023-06-10T11:41:52;25.70;73.60
21895;DHT22;11112;51.270;7.224;2023-06-10T11:44:19;25.80;72.20
21895;DHT22;11112;51.270;7.224;2023-06-10T11:46:48;25.70;72.90
21895;DHT22;11112;51.270;7.224;2023-06-10T11:49:17;25.80;72.50
21895;DHT22;11112;51.270;7.224;2023-06-10T11:51:52;25.80;72.10
21895;DHT22;11112;51.270;7.224;2023-06-10T11:54:20;25.90;72.10
21895;DHT22;11112;51.270;7.224;2023-06-10T11:56:49;25.90;72.60
21895;DHT22;11112;51.270;7.224;2023-06-10T11:59:18;25.90;72.20
21895;DHT22;11112;51.270;7.224;2023-06-10T12:01:46;25.90;72.70
21895;DHT22;11112;51.270;7.224;2023-06-10T12:04:14;25.90;72.00
21895;DHT22;11112;51.270;7.224;2023-06-10T12:06:46;25.80;71.40
21895;DHT22;11112;51.270;7.224;2023-06-10T12:09:15;25.80;72.10
21895;DHT22;11112;51.270;7.224;2023-06-10T12:11:45;25.80;72.10
21895;DHT22;11112;51.270;7.224;2023-06-10T12:14:17;25.80;72.70
21895;DHT22;11112;51.270;7.224;2023-06-10T12:17:34;25.90;72.50
21895;DHT22;11112;51.270;7.224;2023-06-10T12:20:05;25.90;72.70
21895;DHT22;11112;51.270;7.224;2023-06-10T12:22:38;25.90;72.50
21895;DHT22;11112;51.270;7.224;2023-06-10T12:25:07;26.00;71.70
21895;DHT22;11112;51.270;7.224;2023-06-10T12:27:36;25.90;69.40
21895;DHT22;11112;51.270;7.224;2023-06-10T12:30:06;25.90;67.80
21895;DHT22;11112;51.270;7.224;2023-06-10T12:32:39;26.00;67.50
21895;DHT22;11112;51.270;7.224;2023-06-10T12:35:10;25.90;67.70
21895;DHT22;11112;51.270;7.224;2023-06-10T12:37:41;26.00;69.30
21895;DHT22;11112;51.270;7.224;2023-06-10T12:40:10;26.00;69.30
21895;DHT22;11112;51.270;7.224;2023-06-10T12:42:38;26.00;69.10
21895;DHT22;11112;51.270;7.224;2023-06-10T12:45:08;26.10;70.60
21895;DHT22;11112;51.270;7.224;2023-06-10T12:47:39;26.10;70.20
21895;DHT22;11112;51.270;7.224;2023-06-10T12:50:08;26.10;69.90
21895;DHT22;11112;51.270;7.224;2023-06-10T12:52:37;26.10;68.30
21895;DHT22;11112;51.270;7.224;2023-06-10T12:55:08;26.10;67.70
21895;DHT22;11112;51.270;7.224;2023-06-10T12:57:37;26.00;68.10
21895;DHT22;11112;51.270;7.224;2023-06-10T13:00:06;26.10;68.10
21895;DHT22;11112;51.270;7.224;2023-06-10T13:02:36;26.10;69.50
21895;DHT22;11112;51.270;7.224;2023-06-10T13:05:03;26.00;70.00
21895;DHT22;11112;51.270;7.224;2023-06-10T13:07:31;26.00;69.70
21895;DHT22;11112;51.270;7.224;2023-06-10T13:09:59;26.00;70.50
21895;DHT22;11112;51.270;7.224;2023-06-10T13:12:28;26.00;68.60
21895;DHT22;11112;51.270;7.224;2023-06-10T13:14:56;26.00;68.30
21895;DHT22;11112;51.270;7.224;2023-06-10T13:17:24;26.00;68.50
21895;DHT22;11112;51.270;7.224;2023-06-10T13:19:52;26.10;68.70
21895;DHT22;11112;51.270;7.224;2023-06-10T13:22:19;26.10;68.30
21895;DHT22;11112;51.270;7.224;2023-06-10T13:24:47;26.10;68.40
21895;DHT22;11112;51.270;7.224;2023-06-10T13:27:15;26.10;68.40
21895;DHT22;11112;51.270;7.224;2023-06-10T13:29:44;26.10;68.50
21895;DHT22;11112;51.270;7.224;2023-06-10T13:32:11;26.10;68.30
21895;DHT22;11112;51.270;7.224;2023-06-10T13:34:39;26.20;67.10
21895;DHT22;11112;51.270;7.224;2023-06-10T13:37:06;26.20;67.20
21895;DHT22;11112;51.270;7.224;2023-06-10T13:39:34;26.20;66.70
21895;DHT22;11112;51.270;7.224;2023-06-10T13:42:01;26.20;66.90
21895;DHT22;11112;51.270;7.224;2023-06-10T13:44:29;26.20;67.40
21895;DHT22;11112;51.270;7.224;2023-06-10T13:47:00;26.20;67.70
21895;DHT22;11112;51.270;7.224;2023-06-10T13:49:28;26.20;67.30
21895;DHT22;11112;51.270;7.224;2023-06-10T13:51:56;26.20;65.40
21895;DHT22;11112;51.270;7.224;2023-06-10T13:54:24;26.30;65.80
21895;DHT22;11112;51.270;7.224;2023-06-10T13:56:51;26.30;66.40
21895;DHT22;11112;51.270;7.224;2023-06-10T13:59:19;26.30;66.60
21895;DHT22;11112;51.270;7.224;2023-06-10T14:01:46;26.30;67.70
21895;DHT22;11112;51.270;7.224;2023-06-10T14:04:15;26.30;65.30
21895;DHT22;11112;51.270;7.224;2023-06-10T14:06:43;26.30;63.10
21895;DHT22;11112;51.270;7.224;2023-06-10T14:09:12;26.30;62.90
21895;DHT22;11112;51.270;7.224;2023-06-10T14:11:40;26.30;63.10
21895;DHT22;11112;51.270;7.224;2023-06-10T14:14:08;26.30;64.20
21895;DHT22;11112;51.270;7.224;2023-06-10T14:16:35;26.30;64.90
21895;DHT22;11112;51.270;7.224;2023-06-10T14:19:03;26.30;65.80
21895;DHT22;11112;51.270;7.224;2023-06-10T14:21:32;26.30;65.80
21895;DHT22;11112;51.270;7.224;2023-06-10T14:23:59;26.40;65.80
21895;DHT22;11112;51.270;7.224;2023-06-10T14:26:26;26.40;65.70
21895;DHT22;11112;51.270;7.224;2023-06-10T14:28:55;26.40;64.50
21895;DHT22;11112;51.270;7.224;2023-06-10T14:31:22;26.40;64.90
21895;DHT22;11112;51.270;7.224;2023-06-10T14:33:49;26.40;63.90
21895;DHT22;11112;51.270;7.224;2023-06-10T14:36:18;26.40;64.20
21895;DHT22;11112;51.270;7.224;2023-06-10T14:38:46;26.30;64.50
21895;DHT22;11112;51.270;7.224;2023-06-10T14:41:14;26.30;64.50
21895;DHT22;11112;51.270;7.224;2023-06-10T14:43:42;26.30;64.50
21895;DHT22;11112;51.270;7.224;2023-06-10T14:46:09;26.30;64.80
21895;DHT22;11112;51.270;7.224;2023-06-10T14:48:37;26.30;65.40
21895;DHT22;11112;51.270;7.224;2023-06-10T14:51:04;26.20;63.60
21895;DHT22;11112;51.270;7.224;2023-06-10T14:53:31;26.20;62.70
21895;DHT22;11112;51.270;7.224;2023-06-10T14:56:01;26.30;63.50
21895;DHT22;11112;51.270;7.224;2023-06-10T14:58:29;26.30;63.20
21895;DHT22;11112;51.270;7.224;2023-06-10T15:00:56;26.30;63.30
21895;DHT22;11112;51.270;7.224;2023-06-10T15:03:23;26.30;63.30
21895;DHT22;11112;51.270;7.224;2023-06-10T15:05:51;26.30;63.40
21895;DHT22;11112;51.270;7.224;2023-06-10T15:08:18;26.30;64.10
21895;DHT22;11112;51.270;7.224;2023-06-10T15:10:46;26.40;64.60
21895;DHT22;11112;51.270;7.224;2023-06-10T15:13:15;26.50;60.90
21895;DHT22;11112;51.270;7.224;2023-06-10T15:15:43;26.50;59.20
21895;DHT22;11112;51.270;7.224;2023-06-10T15:18:10;26.40;58.70
21895;DHT22;11112;51.270;7.224;2023-06-10T15:20:40;26.40;57.50
21895;DHT22;11112;51.270;7.224;2023-06-10T15:23:12;26.40;57.30
21895;DHT22;11112;51.270;7.224;2023-06-10T15:25:40;26.40;56.60
21895;DHT22;11112;51.270;7.224;2023-06-10T15:28:08;26.40;57.60
21895;DHT22;11112;51.270;7.224;2023-06-10T15:30:38;26.40;57.10
21895;DHT22;11112;51.270;7.224;2023-06-10T15:33:06;26.50;56.40
21895;DHT22;11112;51.270;7.224;2023-06-10T15:35:34;26.40;56.90
21895;DHT22;11112;51.270;7.224;2023-06-10T15:38:02;26.40;56.60
21895;DHT22;11112;51.270;7.224;2023-06-10T15:40:31;26.50;56.50
21895;DHT22;11112;51.270;7.224;2023-06-10T15:42:59;26.50;56.70